Time;durP1;ratioP1;P1;durP2;ratioP2;P2;SDS_P1;SDS_P2;PMS_P1;PMS_P2;Temp;Humidity;BMP_temperature;BMP_pressure;BME280_temperature;BME280_humidity;BME280_pressure;Samples;Min_cycle;Max_cycle;Signal;HPM_P1;HPM_P2
2022/05/10 00:02:00;;;;;;;4.00;2.42;;;19.80;47.70;;;;;;2303503;55;20939;-77
2022/05/10 00:04:26;;;;;;;3.20;2.00;;;19.70;47.80;;;;;;2321764;55;20999;-77
2022/05/10 00:06:53;;;;;;;3.65;2.17;;;19.70;48.00;;;;;;2319061;54;21338;-79
2022/05/10 00:09:21;;;;;;;4.50;2.20;;;19.60;48.00;;;;;;2403855;54;20971;-77
2022/05/10 00:11:48;;;;;;;3.25;2.15;;;19.60;48.00;;;;;;2357315;54;21023;-80
2022/05/10 00:14:15;;;;;;;3.90;2.20;;;19.60;48.10;;;;;;2318760;55;20947;-76
2022/05/10 00:16:43;;;;;;;3.70;2.33;;;19.50;48.00;;;;;;2318354;55;20931;-76
2022/05/10 00:19:14;;;;;;;3.28;2.35;;;19.50;48.10;;;;;;2325868;54;20927;-81
2022/05/10 00:21:41;;;;;;;4.05;2.60;;;19.40;48.10;;;;;;2442916;54;21075;-77
2022/05/10 00:24:07;;;;;;;3.40;2.20;;;19.40;48.10;;;;;;2318262;54;21826;-77
2022/05/10 00:26:35;;;;;;;3.67;2.30;;;19.30;48.10;;;;;;2321447;55;21744;-81
2022/05/10 00:29:02;;;;;;;3.72;2.50;;;19.30;48.20;;;;;;2321568;55;20955;-76
2022/05/10 00:31:28;;;;;;;3.58;2.30;;;19.20;48.20;;;;;;2497803;53;20958;-80
2022/05/10 00:33:55;;;;;;;3.87;2.65;;;19.20;48.30;;;;;;2318555;55;20923;-76
2022/05/10 00:36:23;;;;;;;6.25;2.62;;;19.10;48.30;;;;;;2405127;54;20987;-80
2022/05/10 00:38:50;;;;;;;3.20;2.22;;;19.00;48.40;;;;;;2320182;55;20981;-76
2022/05/10 00:45:52;;;;;;;3.15;2.00;;;18.90;48.80;;;;;;2316516;58;21002;-77
2022/05/10 00:49:57;;;;;;;3.15;1.92;;;18.90;48.70;;;;;;2377555;54;20955;-78
2022/05/10 00:53:52;;;;;;;3.78;2.30;;;18.80;48.70;;;;;;2406713;53;20935;-79
2022/05/10 00:58:10;;;;;;;3.05;1.92;;;18.70;48.40;;;;;;2317470;55;20935;-80
2022/05/10 01:00:37;;;;;;;3.53;2.08;;;18.60;48.70;;;;;;2379757;53;21019;-76
2022/05/10 01:03:27;;;;;;;4.03;2.20;;;18.50;48.20;;;;;;2301913;54;20975;-80
2022/05/10 01:10:22;;;;;;;3.85;2.37;;;18.50;48.80;;;;;;2318535;55;20955;-79
2022/05/10 01:12:52;;;;;;;2.92;1.73;;;18.50;48.80;;;;;;2370767;54;20984;-79
2022/05/10 01:15:20;;;;;;;3.08;1.92;;;18.50;48.50;;;;;;2373044;54;21074;-75
2022/05/10 01:17:47;;;;;;;3.50;2.35;;;18.50;48.70;;;;;;2324481;53;20947;-76
2022/05/10 01:20:18;;;;;;;4.78;2.58;;;18.50;48.80;;;;;;2339026;53;21032;-81
2022/05/10 01:24:17;;;;;;;3.85;2.37;;;18.40;48.90;;;;;;2329729;54;20995;-79
2022/05/10 01:26:56;;;;;;;3.67;2.30;;;18.40;49.30;;;;;;2558950;54;20971;-76
2022/05/10 01:29:27;;;;;;;2.97;2.10;;;18.40;48.90;;;;;;2299408;55;20951;-76
2022/05/10 01:34:43;;;;;;;3.53;2.28;;;18.30;48.90;;;;;;2318428;55;20941;-82
2022/05/10 01:37:11;;;;;;;3.08;1.92;;;18.30;48.90;;;;;;2398417;54;21011;-77
2022/05/10 01:39:42;;;;;;;3.53;2.05;;;18.20;49.00;;;;;;2318361;55;21015;-79
2022/05/10 01:42:58;;;;;;;3.45;2.30;;;18.20;49.20;;;;;;2343903;54;20980;-79
2022/05/10 01:45:33;;;;;;;2.92;2.00;;;18.20;49.30;;;;;;2342868;54;20955;-76
2022/05/10 01:48:01;;;;;;;3.45;2.10;;;18.10;49.10;;;;;;2509925;54;21742;-81
2022/05/10 01:50:57;;;;;;;3.58;2.50;;;18.10;49.70;;;;;;2412372;53;21734;-76
2022/05/10 01:53:34;;;;;;;3.80;2.03;;;18.10;49.60;;;;;;2320643;54;21357;-79
2022/05/10 01:56:05;;;;;;;3.80;2.53;;;18.10;49.40;;;;;;2320245;55;20935;-76
2022/05/10 01:58:34;;;;;;;3.28;2.25;;;18.00;49.30;;;;;;2427814;54;21010;-78
2022/05/10 02:01:19;;;;;;;3.85;2.55;;;18.00;49.30;;;;;;2305591;55;20936;-78
2022/05/10 02:04:05;;;;;;;3.67;2.50;;;17.90;49.70;;;;;;2372785;53;20944;-78
2022/05/10 02:06:51;;;;;;;3.22;2.03;;;17.90;49.70;;;;;;2321216;55;21788;-75
2022/05/10 02:09:30;;;;;;;3.75;2.22;;;17.90;49.80;;;;;;2386101;54;20991;-78
2022/05/10 02:12:02;;;;;;;3.30;2.25;;;17.80;49.50;;;;;;2319715;55;20943;-76
2022/05/10 02:14:54;;;;;;;4.10;2.40;;;17.80;49.40;;;;;;2322765;54;20943;-78
2022/05/10 02:17:48;;;;;;;3.42;2.33;;;17.80;49.80;;;;;;2331973;54;20983;-83
2022/05/10 02:21:09;;;;;;;3.87;2.60;;;17.80;49.80;;;;;;2420933;54;20979;-76
2022/05/10 02:23:54;;;;;;;4.22;2.70;;;17.70;50.20;;;;;;2318283;55;20928;-76
2022/05/10 02:26:28;;;;;;;3.60;2.53;;;17.70;49.60;;;;;;2413554;53;20970;-76
2022/05/10 02:29:14;;;;;;;4.03;2.17;;;17.60;49.50;;;;;;2318624;55;20967;-76
2022/05/10 02:34:41;;;;;;;4.40;2.70;;;17.50;49.90;;;;;;2373365;53;21115;-76
2022/05/10 02:37:07;;;;;;;3.60;2.62;;;17.50;49.60;;;;;;2321427;55;21083;-76
2022/05/10 02:39:34;;;;;;;4.28;2.78;;;17.40;49.60;;;;;;2403347;53;20945;-76
2022/05/10 02:42:00;;;;;;;3.40;2.42;;;17.40;49.70;;;;;;2421432;53;20971;-78
2022/05/10 02:44:27;;;;;;;4.10;2.42;;;17.30;49.70;;;;;;2318630;54;21023;-76
2022/05/10 02:46:57;;;;;;;3.78;2.70;;;17.30;49.80;;;;;;2318165;55;20943;-80
2022/05/10 02:49:24;;;;;;;3.42;2.40;;;17.20;49.90;;;;;;2317691;55;20994;-76
2022/05/10 02:51:50;;;;;;;3.97;2.47;;;17.20;50.00;;;;;;2318377;55;21034;-79
2022/05/10 02:54:16;;;;;;;3.95;2.55;;;17.10;50.00;;;;;;2377287;54;20967;-80
2022/05/10 02:56:43;;;;;;;4.15;2.80;;;17.10;50.00;;;;;;2320064;55;20979;-80
2022/05/10 02:59:14;;;;;;;3.67;2.37;;;17.10;50.10;;;;;;2318578;54;20958;-76
2022/05/10 03:02:06;;;;;;;4.12;2.70;;;17.10;50.10;;;;;;2414514;54;21784;-79
2022/05/10 03:04:34;;;;;;;3.22;2.20;;;17.00;50.30;;;;;;2318506;55;20955;-76
2022/05/10 03:07:00;;;;;;;4.20;2.70;;;17.00;50.10;;;;;;2558029;53;20927;-76
2022/05/10 03:09:29;;;;;;;3.83;2.62;;;16.90;50.10;;;;;;2323513;54;20966;-77
2022/05/10 03:11:56;;;;;;;4.28;3.10;;;16.90;50.20;;;;;;2318409;55;20936;-77
2022/05/10 03:14:22;;;;;;;3.40;2.50;;;16.90;50.20;;;;;;2317807;55;20959;-79
2022/05/10 03:16:49;;;;;;;4.40;2.75;;;16.80;50.20;;;;;;2356633;53;21007;-77
2022/05/10 03:19:16;;;;;;;3.67;2.65;;;16.80;50.30;;;;;;2344314;54;20916;-77
2022/05/10 03:21:43;;;;;;;5.00;2.42;;;16.80;50.40;;;;;;2347881;54;20993;-79
2022/05/10 03:24:09;;;;;;;4.45;2.78;;;16.70;50.30;;;;;;2372289;54;20975;-81
2022/05/10 03:26:37;;;;;;;4.07;2.42;;;16.70;50.40;;;;;;2322237;55;20955;-78
2022/05/10 03:29:03;;;;;;;4.65;3.10;;;16.70;50.50;;;;;;2317116;55;21416;-76
2022/05/10 03:31:30;;;;;;;4.78;3.00;;;16.60;50.60;;;;;;2318739;55;20927;-76
2022/05/10 03:36:42;;;;;;;4.10;2.90;;;16.60;50.70;;;;;;2557997;54;20931;-77
2022/05/10 03:39:08;;;;;;;3.87;2.80;;;16.50;50.60;;;;;;2340263;54;20928;-80
2022/05/10 03:41:35;;;;;;;4.00;2.50;;;16.50;50.70;;;;;;2321356;54;20955;-77
2022/05/10 03:44:01;;;;;;;4.37;2.70;;;16.50;50.80;;;;;;2318840;54;20986;-82
2022/05/10 03:46:29;;;;;;;3.50;2.45;;;16.40;50.90;;;;;;2318673;55;21081;-76
2022/05/10 03:48:57;;;;;;;3.72;2.47;;;16.40;50.90;;;;;;2435994;54;20992;-78
2022/05/10 03:51:23;;;;;;;4.10;2.62;;;16.40;50.90;;;;;;2501027;53;20989;-79
2022/05/10 03:53:50;;;;;;;3.70;2.50;;;16.30;50.90;;;;;;2531450;53;20988;-78
2022/05/10 03:56:19;;;;;;;3.40;2.20;;;16.30;50.90;;;;;;2317904;54;20982;-80
2022/05/10 03:58:46;;;;;;;3.40;2.17;;;16.30;51.00;;;;;;2364443;54;20915;-76
2022/05/10 04:01:13;;;;;;;3.83;2.58;;;16.30;51.00;;;;;;2318266;55;20943;-76
2022/05/10 04:03:40;;;;;;;4.15;3.00;;;16.30;51.10;;;;;;2317381;55;20959;-76
2022/05/10 04:06:10;;;;;;;3.80;2.70;;;16.30;51.30;;;;;;2317514;55;21781;-76
2022/05/10 04:08:37;;;;;;;4.78;2.90;;;16.30;51.30;;;;;;2339771;54;21243;-77
2022/05/10 04:11:04;;;;;;;4.40;2.83;;;16.30;51.30;;;;;;2405942;54;21026;-77
2022/05/10 04:13:32;;;;;;;3.50;2.45;;;16.20;51.30;;;;;;2318916;54;20931;-80
2022/05/10 04:15:59;;;;;;;4.80;3.45;;;16.20;51.40;;;;;;2320880;55;20951;-76
2022/05/10 04:18:26;;;;;;;10.85;3.65;;;16.20;51.50;;;;;;2372371;54;21015;-78
2022/05/10 04:20:52;;;;;;;5.07;3.60;;;16.20;51.60;;;;;;2558728;53;21567;-76
2022/05/10 04:23:18;;;;;;;4.30;3.08;;;16.20;51.70;;;;;;2421706;53;20997;-77
2022/05/10 04:26:04;;;;;;;4.95;3.10;;;16.20;51.80;;;;;;2321405;55;20975;-76
2022/05/10 04:28:31;;;;;;;4.10;3.10;;;16.20;52.00;;;;;;2310266;55;20945;-76
2022/05/10 04:30:58;;;;;;;4.70;3.22;;;16.20;51.90;;;;;;2310529;54;20947;-80
2022/05/10 04:33:24;;;;;;;4.30;3.00;;;16.20;51.90;;;;;;2316430;55;20959;-76
2022/05/10 04:35:52;;;;;;;5.57;3.12;;;16.20;52.00;;;;;;2317826;55;20950;-76
2022/05/10 04:38:19;;;;;;;4.25;2.70;;;16.20;52.00;;;;;;2317091;55;20921;-76
2022/05/10 04:43:30;;;;;;;4.82;3.30;;;16.20;52.20;;;;;;2317160;55;20966;-76
2022/05/10 04:45:57;;;;;;;5.00;3.40;;;16.20;52.20;;;;;;2411505;54;21587;-76
2022/05/10 04:48:23;;;;;;;4.62;3.40;;;16.30;52.40;;;;;;2321539;54;21838;-80
2022/05/10 04:50:49;;;;;;;4.97;3.33;;;16.30;52.40;;;;;;2311345;54;21451;-78
2022/05/10 04:53:15;;;;;;;5.75;3.53;;;16.30;52.50;;;;;;2306024;55;21002;-77
2022/05/10 04:55:53;;;;;;;5.35;3.75;;;16.30;52.60;;;;;;2320014;55;20979;-77
2022/05/10 04:58:20;;;;;;;5.87;3.28;;;16.40;52.80;;;;;;2422421;54;20926;-78
2022/05/10 05:00:50;;;;;;;5.72;3.22;;;16.40;52.70;;;;;;2555196;53;20987;-82
2022/05/10 05:03:16;;;;;;;5.43;3.58;;;16.40;52.90;;;;;;2308777;55;21058;-76
2022/05/10 05:05:44;;;;;;;5.60;3.50;;;16.50;53.00;;;;;;2317279;54;20970;-76
2022/05/10 05:08:10;;;;;;;5.57;3.60;;;16.50;53.00;;;;;;2318104;55;20912;-76
2022/05/10 05:10:37;;;;;;;5.65;3.83;;;16.60;53.20;;;;;;2318678;55;20926;-79
2022/05/10 05:13:03;;;;;;;5.45;3.80;;;16.60;53.20;;;;;;2433048;53;21002;-76
2022/05/10 05:15:30;;;;;;;4.93;3.30;;;16.70;53.30;;;;;;2458059;54;20983;-76
2022/05/10 05:17:56;;;;;;;4.95;3.60;;;16.70;53.30;;;;;;2298829;55;20927;-77
2022/05/10 05:20:23;;;;;;;4.72;3.45;;;16.80;53.40;;;;;;2317808;55;21038;-75
2022/05/10 05:22:49;;;;;;;5.78;3.58;;;16.90;53.60;;;;;;2360199;54;21003;-76
2022/05/10 05:25:18;;;;;;;4.87;3.40;;;16.90;53.70;;;;;;2320180;55;20947;-77
2022/05/10 05:27:44;;;;;;;4.60;3.17;;;17.00;53.70;;;;;;2319537;55;22213;-81
2022/05/10 05:30:14;;;;;;;4.68;3.20;;;17.10;53.80;;;;;;2351376;54;20975;-77
2022/05/10 05:32:40;;;;;;;4.95;3.72;;;17.10;53.80;;;;;;2318084;55;21030;-75
2022/05/10 05:35:08;;;;;;;4.32;3.17;;;17.20;53.90;;;;;;2403046;54;21683;-80
2022/05/10 05:37:37;;;;;;;5.07;3.53;;;17.30;54.10;;;;;;2356236;54;21031;-76
2022/05/10 05:40:08;;;;;;;4.60;3.37;;;17.40;54.10;;;;;;2318665;55;21023;-76
2022/05/10 05:42:35;;;;;;;4.73;3.20;;;17.50;54.40;;;;;;2435564;54;21015;-76
2022/05/10 05:45:03;;;;;;;4.05;2.75;;;17.60;54.30;;;;;;2317557;55;21003;-78
2022/05/10 05:47:29;;;;;;;5.35;3.62;;;17.70;54.40;;;;;;2318946;54;21523;-76
2022/05/10 05:49:56;;;;;;;4.47;3.20;;;17.80;54.50;;;;;;2325567;54;21638;-76
2022/05/10 05:52:23;;;;;;;4.32;3.53;;;17.90;54.70;;;;;;2321100;55;21776;-82
2022/05/10 05:54:50;;;;;;;4.82;3.67;;;18.00;54.80;;;;;;2395438;53;20947;-77
2022/05/10 05:57:16;;;;;;;5.78;3.35;;;18.10;55.00;;;;;;2318730;55;21463;-76
2022/05/10 05:59:43;;;;;;;4.55;3.37;;;18.30;55.10;;;;;;2360787;54;21393;-82
2022/05/10 06:02:17;;;;;;;4.75;3.30;;;18.40;55.20;;;;;;2360815;54;20971;-76
2022/05/10 06:04:45;;;;;;;5.07;3.78;;;18.50;55.30;;;;;;2329980;54;21073;-77
2022/05/10 06:07:13;;;;;;;4.45;3.20;;;18.70;55.30;;;;;;2310761;54;20966;-78
2022/05/10 06:09:41;;;;;;;4.80;3.08;;;18.80;55.20;;;;;;2484103;54;21491;-77
2022/05/10 06:12:08;;;;;;;5.28;3.47;;;18.90;55.20;;;;;;2299060;55;21015;-77
2022/05/10 06:14:35;;;;;;;5.82;3.28;;;19.00;55.10;;;;;;2318149;55;21502;-77
2022/05/10 06:17:07;;;;;;;6.18;3.60;;;19.20;55.20;;;;;;2318553;55;21076;-79
2022/05/10 06:19:34;;;;;;;4.28;3.15;;;19.40;55.50;;;;;;2319956;55;21396;-77
2022/05/10 06:22:00;;;;;;;3.78;2.97;;;19.50;55.20;;;;;;2303856;55;20957;-80
2022/05/10 06:24:29;;;;;;;4.40;3.03;;;19.60;55.20;;;;;;2317342;55;20991;-79
2022/05/10 06:26:55;;;;;;;4.20;2.70;;;19.80;55.10;;;;;;2340460;54;22408;-77
2022/05/10 06:29:22;;;;;;;4.18;3.03;;;19.90;55.10;;;;;;2317333;55;20983;-80
2022/05/10 06:31:49;;;;;;;4.32;3.00;;;20.00;55.00;;;;;;2318414;55;20967;-81
2022/05/10 06:34:15;;;;;;;4.32;3.00;;;20.10;55.00;;;;;;2316855;55;21516;-78
2022/05/10 06:36:42;;;;;;;4.57;2.80;;;20.30;55.10;;;;;;2337372;54;21035;-78
2022/05/10 06:39:08;;;;;;;3.97;2.70;;;20.40;55.10;;;;;;2317296;55;21023;-79
2022/05/10 06:41:35;;;;;;;3.60;2.58;;;20.50;55.10;;;;;;2316568;55;21043;-77
2022/05/10 06:44:01;;;;;;;3.75;2.75;;;20.60;55.00;;;;;;2388061;54;21594;-81
2022/05/10 06:46:29;;;;;;;4.18;3.15;;;20.80;55.00;;;;;;2321406;55;21444;-75
2022/05/10 06:49:01;;;;;;;4.30;3.17;;;20.90;55.00;;;;;;2317559;55;21389;-75
2022/05/10 06:51:27;;;;;;;3.97;2.97;;;21.00;54.80;;;;;;2320895;55;20947;-74
2022/05/10 06:53:54;;;;;;;4.37;3.20;;;21.20;54.70;;;;;;2317104;55;21431;-75
2022/05/10 06:56:21;;;;;;;3.85;2.80;;;21.30;54.80;;;;;;2317651;55;20982;-74
2022/05/10 06:58:48;;;;;;;4.00;3.05;;;21.40;54.80;;;;;;2367241;54;21003;-75
2022/05/10 07:01:14;;;;;;;4.25;3.28;;;21.60;54.80;;;;;;2317178;55;20931;-74
2022/05/10 07:03:43;;;;;;;4.28;3.00;;;21.70;54.70;;;;;;2317248;55;20959;-75
2022/05/10 07:06:10;;;;;;;4.53;3.40;;;21.90;54.70;;;;;;2317963;55;20915;-74
2022/05/10 07:08:37;;;;;;;4.35;3.47;;;22.10;54.70;;;;;;2420334;54;21003;-75
2022/05/10 07:11:04;;;;;;;5.68;3.90;;;22.30;54.70;;;;;;2320943;54;21443;-75
2022/05/10 07:13:31;;;;;;;4.12;2.92;;;22.50;54.90;;;;;;2318310;55;21388;-74
2022/05/10 07:15:57;;;;;;;4.32;3.03;;;22.70;54.80;;;;;;2317971;55;21047;-75
2022/05/10 07:18:24;;;;;;;4.97;3.90;;;22.90;54.50;;;;;;2321684;55;21022;-74
2022/05/10 07:20:53;;;;;;;5.37;4.35;;;23.10;54.20;;;;;;2302327;55;21022;-75
2022/05/10 07:23:21;;;;;;;5.15;4.00;;;23.30;53.80;;;;;;2294974;55;20947;-75
2022/05/10 07:25:48;;;;;;;6.80;3.92;;;23.50;53.60;;;;;;2317066;54;20943;-74
2022/05/10 07:28:14;;;;;;;5.40;4.07;;;23.70;53.70;;;;;;2317719;55;21419;-75
2022/05/10 07:30:41;;;;;;;5.47;4.10;;;23.90;53.90;;;;;;2317750;55;20927;-75
2022/05/10 07:33:08;;;;;;;4.60;3.62;;;24.20;53.40;;;;;;2429699;53;21892;-76
2022/05/10 07:38:19;;;;;;;4.10;3.00;;;24.70;52.60;;;;;;2519696;53;26325;-75
2022/05/10 07:40:49;;;;;;;5.20;3.70;;;24.90;52.20;;;;;;2375833;54;20955;-75
2022/05/10 07:43:17;;;;;;;4.68;3.62;;;25.00;52.20;;;;;;2558284;54;20987;-75
2022/05/10 07:45:44;;;;;;;4.22;3.58;;;25.20;51.30;;;;;;2317455;55;20971;-75
2022/05/10 07:48:10;;;;;;;4.93;3.67;;;25.20;51.00;;;;;;2317636;54;20943;-76
2022/05/10 07:50:37;;;;;;;4.43;3.20;;;25.40;51.00;;;;;;2318367;55;20931;-75
2022/05/10 07:53:06;;;;;;;4.68;3.22;;;25.60;51.30;;;;;;2321470;55;20979;-76
2022/05/10 07:55:35;;;;;;;4.40;3.22;;;25.80;51.20;;;;;;2558967;53;20941;-78
2022/05/10 07:58:06;;;;;;;4.50;3.25;;;26.00;50.80;;;;;;2362600;54;20996;-75
2022/05/10 08:00:33;;;;;;;4.47;3.47;;;26.20;50.40;;;;;;2386133;53;20908;-75
2022/05/10 08:03:06;;;;;;;6.10;3.50;;;26.30;49.70;;;;;;2318489;55;20935;-79
2022/05/10 08:05:32;;;;;;;4.45;3.45;;;26.30;49.10;;;;;;2558379;53;21396;-75
2022/05/10 08:08:03;;;;;;;4.62;3.60;;;26.30;48.20;;;;;;2318948;55;20991;-78
2022/05/10 08:10:29;;;;;;;5.55;3.50;;;26.30;47.70;;;;;;2368505;54;21051;-76
2022/05/10 08:12:57;;;;;;;5.80;3.50;;;26.20;47.70;;;;;;2317866;55;21634;-76
2022/05/10 08:15:24;;;;;;;4.62;2.85;;;26.20;48.00;;;;;;2323130;54;21448;-76
2022/05/10 08:17:52;;;;;;;5.55;3.25;;;26.20;48.10;;;;;;2328744;55;21819;-76
2022/05/10 08:20:19;;;;;;;4.95;3.67;;;26.10;48.00;;;;;;2324204;54;21003;-75
2022/05/10 08:22:46;;;;;;;4.65;3.15;;;26.10;47.90;;;;;;2317372;55;21539;-75
2022/05/10 08:25:12;;;;;;;4.03;3.10;;;26.10;47.70;;;;;;2425419;53;21411;-79
2022/05/10 08:27:39;;;;;;;4.25;2.97;;;26.10;47.70;;;;;;2404618;54;20991;-75
2022/05/10 08:30:09;;;;;;;4.35;3.42;;;26.10;48.20;;;;;;2478553;54;20987;-77
2022/05/10 08:32:35;;;;;;;3.97;2.80;;;26.10;48.30;;;;;;2318935;55;21011;-75
2022/05/10 08:35:14;;;;;;;5.90;3.10;;;26.10;48.10;;;;;;2418001;54;21817;-75
2022/05/10 08:37:41;;;;;;;4.28;3.10;;;26.20;48.10;;;;;;2341461;54;21010;-75
2022/05/10 08:40:18;;;;;;;3.78;2.90;;;26.20;48.20;;;;;;2361719;54;20994;-76
2022/05/10 08:42:49;;;;;;;4.72;3.20;;;26.30;48.20;;;;;;2321046;55;21502;-76
2022/05/10 08:45:18;;;;;;;4.40;3.03;;;26.40;48.30;;;;;;2356522;53;20955;-79
2022/05/10 08:47:46;;;;;;;4.45;3.03;;;26.50;48.30;;;;;;2358545;54;20987;-75
2022/05/10 08:50:13;;;;;;;3.72;2.53;;;26.70;48.80;;;;;;2371895;54;20991;-80
2022/05/10 08:53:01;;;;;;;4.45;2.60;;;26.80;48.00;;;;;;2389123;54;20999;-75
2022/05/10 08:55:29;;;;;;;5.68;2.90;;;26.90;47.80;;;;;;2319996;54;20951;-76
2022/05/10 08:58:50;;;;;;;4.25;3.05;;;27.00;47.70;;;;;;2317385;55;20994;-80
2022/05/10 09:04:19;;;;;;;3.95;2.95;;;27.00;47.20;;;;;;2316757;55;21439;-75
2022/05/10 09:07:34;;;;;;;3.60;2.50;;;27.20;47.50;;;;;;2319220;55;20935;-78
2022/05/10 09:10:12;;;;;;;5.00;2.95;;;27.40;47.40;;;;;;2383654;54;21010;-78
2022/05/10 09:16:13;;;;;;;4.00;3.10;;;27.50;46.80;;;;;;2317567;55;20987;-76
2022/05/10 09:18:53;;;;;;;4.35;2.58;;;27.70;46.80;;;;;;2471592;53;20975;-75
2022/05/10 09:21:35;;;;;;;6.80;3.15;;;27.70;46.60;;;;;;2358726;54;21094;-75
2022/05/10 09:25:34;;;;;;;;;;;27.80;46.00;;;;;;2323514;54;21051;-76
2022/05/10 09:28:38;;;;;;;3.75;2.90;;;27.80;45.60;;;;;;2377449;54;20094;-74
2022/05/10 09:34:46;;;;;;;3.90;2.60;;;28.00;44.90;;;;;;2317684;55;20971;-73
2022/05/10 09:37:33;;;;;;;3.95;2.92;;;28.00;45.50;;;;;;2359208;53;21028;-78
2022/05/10 09:42:04;;;;;;;3.83;2.95;;;28.00;45.00;;;;;;2356740;54;21035;-78
2022/05/10 09:44:30;;;;;;;4.12;2.92;;;28.10;44.60;;;;;;2343997;54;20938;-77
2022/05/10 09:47:14;;;;;;;3.65;2.40;;;28.10;44.50;;;;;;2319062;55;21352;-78
2022/05/10 09:49:41;;;;;;;4.55;2.60;;;28.10;44.80;;;;;;2330496;54;20938;-76
2022/05/10 09:52:17;;;;;;;4.43;3.00;;;28.20;45.00;;;;;;2317645;55;20987;-76
2022/05/10 09:54:43;;;;;;;5.05;3.25;;;28.20;44.00;;;;;;2375807;53;21011;-76
2022/05/10 09:57:13;;;;;;;4.75;3.17;;;28.30;43.40;;;;;;2412334;54;21039;-76
2022/05/10 09:59:44;;;;;;;5.20;2.53;;;28.30;43.40;;;;;;2380184;53;20987;-76
2022/05/10 10:02:12;;;;;;;3.22;2.33;;;28.30;43.50;;;;;;2384945;53;20933;-79
2022/05/10 10:04:40;;;;;;;3.03;2.12;;;28.40;43.90;;;;;;2378057;53;20954;-76
2022/05/10 10:07:21;;;;;;;3.78;2.45;;;28.40;44.00;;;;;;2321476;55;20965;-74
2022/05/10 10:09:51;;;;;;;3.35;2.17;;;28.40;43.80;;;;;;2322788;54;21011;-75
2022/05/10 10:12:37;;;;;;;3.37;2.10;;;28.50;43.80;;;;;;2319092;55;21105;-74
2022/05/10 10:15:38;;;;;;;3.50;2.15;;;28.60;43.40;;;;;;2397510;54;20987;-76
2022/05/10 10:18:06;;;;;;;4.30;2.20;;;28.70;43.30;;;;;;2317853;55;21460;-76
2022/05/10 10:20:42;;;;;;;3.95;2.35;;;28.80;43.40;;;;;;2389637;54;21710;-75
2022/05/10 10:25:46;;;;;;;3.58;2.50;;;28.90;43.00;;;;;;2314774;55;20978;-75
2022/05/10 10:28:26;;;;;;;3.60;2.25;;;29.10;42.90;;;;;;2326838;54;20927;-75
2022/05/10 10:31:02;;;;;;;3.08;2.08;;;29.10;42.50;;;;;;2311509;55;20971;-75
2022/05/10 10:33:58;;;;;;;3.42;2.22;;;29.20;42.40;;;;;;2315912;55;21499;-75
2022/05/10 10:36:28;;;;;;;4.90;1.98;;;29.30;42.30;;;;;;2321768;55;20998;-75
2022/05/10 10:39:19;;;;;;;4.28;2.65;;;29.30;42.80;;;;;;2327635;54;20971;-73
2022/05/10 10:41:51;;;;;;;3.62;1.95;;;29.40;41.50;;;;;;2356535;53;20935;-74
2022/05/10 10:44:25;;;;;;;3.67;2.25;;;29.60;41.80;;;;;;2385141;54;21586;-77
2022/05/10 10:49:32;;;;;;;4.43;2.60;;;29.60;42.20;;;;;;2320013;55;20979;-73
2022/05/10 10:51:59;;;;;;;2.80;1.90;;;29.80;41.60;;;;;;2522429;54;20967;-76
2022/05/10 10:54:26;;;;;;;3.28;2.35;;;29.90;41.60;;;;;;2317960;55;21359;-73
2022/05/10 10:58:50;;;;;;;3.08;2.10;;;29.90;41.30;;;;;;2318020;55;21011;-74
2022/05/10 11:01:49;;;;;;;3.05;1.87;;;30.00;40.20;;;;;;2388702;53;20955;-77
2022/05/10 11:05:56;;;;;;;3.53;1.80;;;30.10;40.70;;;;;;2318555;54;21373;-74
2022/05/10 11:11:24;;;;;;;2.70;1.45;;;30.30;40.80;;;;;;2369077;54;20971;-74
2022/05/10 11:14:58;;;;;;;3.15;1.87;;;30.50;40.90;;;;;;2365517;54;20974;-73
2022/05/10 11:18:50;;;;;;;2.92;1.80;;;30.50;39.60;;;;;;2320273;55;21060;-75
2022/05/10 11:21:31;;;;;;;3.35;1.80;;;30.60;39.60;;;;;;2324877;54;20998;-74
2022/05/10 11:26:08;;;;;;;4.00;2.10;;;30.70;40.00;;;;;;2321231;55;21662;-78
2022/05/10 11:28:55;;;;;;;3.37;2.05;;;30.70;39.50;;;;;;2366303;53;21006;-74
2022/05/10 11:31:40;;;;;;;3.40;1.90;;;30.70;39.00;;;;;;2371081;53;20979;-76
2022/05/10 11:37:15;;;;;;;3.45;2.20;;;30.70;39.40;;;;;;2440583;53;21015;-72
2022/05/10 11:40:05;;;;;;;3.20;1.83;;;30.80;39.60;;;;;;2318523;55;21010;-73
2022/05/10 11:56:05;;;;;;;3.08;2.05;;;30.90;38.20;;;;;;2349822;54;20951;-73
2022/05/10 11:58:44;;;;;;;2.80;1.73;;;31.10;38.10;;;;;;2430864;52;22777;-73
2022/05/10 12:01:18;;;;;;;3.08;1.95;;;31.10;37.90;;;;;;2314700;53;21463;-75
2022/05/10 12:03:49;;;;;;;3.45;1.92;;;31.10;37.90;;;;;;2352736;53;20996;-74
2022/05/10 12:08:53;;;;;;;2.80;1.70;;;31.10;37.70;;;;;;2330009;53;21464;-75
2022/05/10 12:23:14;;;;;;;3.37;1.70;;;31.40;36.50;;;;;;2336007;53;21057;-75
2022/05/10 12:26:02;;;;;;;2.95;1.75;;;31.40;36.50;;;;;;2339444;53;21063;-75
2022/05/10 12:29:08;;;;;;;2.80;1.70;;;31.40;35.60;;;;;;2330332;53;21084;-79
2022/05/10 12:33:13;;;;;;;2.62;1.55;;;31.40;35.70;;;;;;2517160;53;20948;-75
2022/05/10 12:36:09;;;;;;;2.70;1.60;;;31.50;35.70;;;;;;2288229;53;21537;-75
2022/05/10 12:38:57;;;;;;;3.03;1.35;;;31.60;35.80;;;;;;2491046;54;21118;-76
2022/05/10 12:41:39;;;;;;;2.78;1.77;;;31.60;35.60;;;;;;2304779;54;21000;-74
2022/05/10 12:44:50;;;;;;;3.42;2.05;;;31.60;35.00;;;;;;2362890;53;21013;-74
2022/05/10 12:50:00;;;;;;;2.90;1.70;;;31.70;34.20;;;;;;2334820;54;20975;-73
2022/05/10 12:52:43;;;;;;;2.97;1.60;;;31.70;34.90;;;;;;2371174;53;20919;-74
2022/05/10 12:55:15;;;;;;;3.00;1.85;;;31.70;33.80;;;;;;2341810;53;21089;-74
2022/05/10 12:57:54;;;;;;;2.65;1.35;;;31.70;33.90;;;;;;2439758;53;20939;-73
2022/05/10 13:00:25;;;;;;;2.47;1.42;;;31.70;33.20;;;;;;2341052;53;21774;-76
2022/05/10 13:03:16;;;;;;;2.42;1.55;;;31.70;34.00;;;;;;2341071;53;21416;-74
2022/05/10 13:07:56;;;;;;;2.40;1.47;;;31.70;33.00;;;;;;2342370;53;21009;-73
2022/05/10 13:10:23;;;;;;;2.72;1.48;;;31.70;33.50;;;;;;2551895;52;20944;-74
2022/05/10 13:13:04;;;;;;;2.83;1.48;;;31.80;33.60;;;;;;2400451;52;20965;-73
2022/05/10 13:15:32;;;;;;;3.78;1.48;;;31.80;33.10;;;;;;2375540;53;20933;-72
2022/05/10 13:17:58;;;;;;;2.85;1.40;;;31.90;33.50;;;;;;2339787;53;20978;-71
2022/05/10 13:20:27;;;;;;;2.90;1.70;;;31.90;33.80;;;;;;2387455;53;21556;-74
2022/05/10 13:23:01;;;;;;;2.37;1.25;;;31.90;33.00;;;;;;2337521;53;20934;-73
2022/05/10 13:25:35;;;;;;;2.70;1.65;;;31.90;33.00;;;;;;2433388;52;21018;-76
2022/05/10 13:28:23;;;;;;;3.30;1.87;;;32.00;33.00;;;;;;2355080;53;21602;-70
2022/05/10 13:30:54;;;;;;;2.70;1.73;;;32.10;32.90;;;;;;2405687;53;21496;-74
2022/05/10 13:33:33;;;;;;;2.53;1.40;;;32.10;32.30;;;;;;2338334;53;21617;-76
2022/05/10 13:36:07;;;;;;;2.90;1.65;;;32.10;32.50;;;;;;2382390;52;20926;-74
2022/05/10 13:38:44;;;;;;;2.72;1.35;;;32.10;32.50;;;;;;2341965;53;21133;-74
2022/05/10 13:41:13;;;;;;;2.85;1.65;;;32.10;32.30;;;;;;2491158;52;20915;-72
2022/05/10 13:43:43;;;;;;;3.22;1.70;;;32.10;32.50;;;;;;2352844;53;20961;-74
2022/05/10 13:46:34;;;;;;;3.67;1.80;;;32.10;32.20;;;;;;2370686;53;20995;-77
2022/05/10 13:49:03;;;;;;;2.95;1.85;;;32.00;31.70;;;;;;2325948;54;21012;-77
2022/05/10 13:52:03;;;;;;;2.78;1.80;;;32.00;32.00;;;;;;2411578;53;20942;-74
2022/05/10 13:54:34;;;;;;;3.55;1.90;;;32.00;31.80;;;;;;2354645;53;20941;-75
2022/05/10 13:57:36;;;;;;;3.10;1.87;;;31.90;32.10;;;;;;2342713;53;20946;-74
2022/05/10 14:00:24;;;;;;;4.80;2.12;;;31.90;32.30;;;;;;2339801;53;21504;-78
2022/05/10 14:02:57;;;;;;;2.83;1.70;;;31.90;31.70;;;;;;2364232;52;21427;-74
2022/05/10 14:05:28;;;;;;;3.03;1.60;;;31.90;31.70;;;;;;2341790;53;21030;-74
2022/05/10 14:07:59;;;;;;;4.10;2.33;;;31.90;32.10;;;;;;2343594;53;20946;-75
2022/05/10 14:10:34;;;;;;;3.87;2.28;;;31.90;31.70;;;;;;2338698;53;20954;-76
2022/05/10 14:13:04;;;;;;;2.97;1.75;;;31.80;31.40;;;;;;2524852;52;20943;-77
2022/05/10 14:15:47;;;;;;;3.87;2.00;;;31.80;31.70;;;;;;2350206;53;20989;-74
2022/05/10 14:18:19;;;;;;;3.17;1.50;;;31.80;31.40;;;;;;2380658;53;20950;-78
2022/05/10 14:20:48;;;;;;;;;;;31.80;31.90;;;;;;2483952;52;20938;-77
2022/05/10 14:23:16;;;;;;;2.80;1.37;;;31.90;32.30;;;;;;2341471;53;20065;-74
2022/05/10 14:25:53;;;;;;;3.00;1.73;;;31.80;32.10;;;;;;2352508;53;21406;-75
2022/05/10 14:28:34;;;;;;;3.37;2.05;;;31.80;31.70;;;;;;2374703;53;21019;-74
2022/05/10 14:31:13;;;;;;;3.53;1.92;;;31.80;31.10;;;;;;2340390;53;20911;-78
2022/05/10 14:33:51;;;;;;;2.50;1.55;;;31.70;31.20;;;;;;2393189;52;20961;-76
2022/05/10 14:36:37;;;;;;;2.60;1.50;;;31.70;31.60;;;;;;2339376;53;21053;-75
2022/05/10 14:39:07;;;;;;;4.03;1.75;;;31.70;31.60;;;;;;2348243;53;20956;-74
2022/05/10 14:41:41;;;;;;;3.85;2.08;;;31.70;31.90;;;;;;2341903;53;21017;-75
2022/05/10 14:44:49;;;;;;;3.30;2.05;;;31.70;31.40;;;;;;2458377;52;20979;-74
2022/05/10 14:47:24;;;;;;;4.32;2.40;;;31.70;31.90;;;;;;2432440;52;20947;-74
2022/05/10 14:49:54;;;;;;;3.30;2.10;;;31.70;31.60;;;;;;2351879;53;20997;-73
2022/05/10 14:52:36;;;;;;;3.20;2.12;;;31.70;31.50;;;;;;2343330;53;20944;-74